sensor_id;sensor_type;location;lat;lon;timestamp;P1;durP1;ratioP1;P2;durP2;ratioP2
73168;SDS011;61379;59.732;30.468;2023-03-23T00:01:13;21.38;;;12.15;;
73168;SDS011;61379;59.732;30.468;2023-03-23T00:03:44;13.80;;;8.73;;
73168;SDS011;61379;59.732;30.468;2023-03-23T00:06:11;26.40;;;13.77;;
73168;SDS011;61379;59.732;30.468;2023-03-23T00:08:42;24.35;;;12.90;;
73168;SDS011;61379;59.732;30.468;2023-03-23T00:11:11;28.95;;;13.20;;
73168;SDS011;61379;59.732;30.468;2023-03-23T00:13:40;24.50;;;12.23;;
73168;SDS011;61379;59.732;30.468;2023-03-23T00:16:07;25.63;;;13.05;;
73168;SDS011;61379;59.732;30.468;2023-03-23T00:18:43;22.00;;;12.32;;
73168;SDS011;61379;59.732;30.468;2023-03-23T00:21:10;19.45;;;11.77;;
73168;SDS011;61379;59.732;30.468;2023-03-23T00:23:37;25.35;;;14.00;;
73168;SDS011;61379;59.732;30.468;2023-03-23T00:26:04;21.60;;;12.63;;
73168;SDS011;61379;59.732;30.468;2023-03-23T00:28:31;20.13;;;11.15;;
73168;SDS011;61379;59.732;30.468;2023-03-23T00:30:59;33.95;;;12.98;;
73168;SDS011;61379;59.732;30.468;2023-03-23T00:33:27;26.10;;;13.65;;
73168;SDS011;61379;59.732;30.468;2023-03-23T00:35:55;24.20;;;11.60;;
73168;SDS011;61379;59.732;30.468;2023-03-23T00:38:23;25.08;;;12.23;;
73168;SDS011;61379;59.732;30.468;2023-03-23T00:40:50;16.40;;;10.13;;
73168;SDS011;61379;59.732;30.468;2023-03-23T00:43:18;12.55;;;9.50;;
73168;SDS011;61379;59.732;30.468;2023-03-23T00:45:44;17.52;;;9.63;;
73168;SDS011;61379;59.732;30.468;2023-03-23T00:50:40;16.92;;;9.77;;
73168;SDS011;61379;59.732;30.468;2023-03-23T00:53:08;18.25;;;10.80;;
73168;SDS011;61379;59.732;30.468;2023-03-23T00:55:35;18.40;;;10.80;;
73168;SDS011;61379;59.732;30.468;2023-03-23T00:58:02;33.05;;;12.70;;
73168;SDS011;61379;59.732;30.468;2023-03-23T01:00:28;8.43;;;7.32;;
73168;SDS011;61379;59.732;30.468;2023-03-23T01:02:55;32.15;;;14.20;;
73168;SDS011;61379;59.732;30.468;2023-03-23T01:05:22;26.23;;;12.43;;
73168;SDS011;61379;59.732;30.468;2023-03-23T01:07:48;26.45;;;12.73;;
73168;SDS011;61379;59.732;30.468;2023-03-23T01:10:17;29.83;;;12.80;;
73168;SDS011;61379;59.732;30.468;2023-03-23T01:12:43;19.83;;;11.63;;
73168;SDS011;61379;59.732;30.468;2023-03-23T01:15:13;21.00;;;12.10;;
73168;SDS011;61379;59.732;30.468;2023-03-23T01:20:07;17.23;;;11.10;;
73168;SDS011;61379;59.732;30.468;2023-03-23T01:22:34;25.52;;;12.77;;
73168;SDS011;61379;59.732;30.468;2023-03-23T01:25:01;26.05;;;13.07;;
73168;SDS011;61379;59.732;30.468;2023-03-23T01:27:30;23.95;;;12.68;;
73168;SDS011;61379;59.732;30.468;2023-03-23T01:29:56;29.83;;;14.15;;
73168;SDS011;61379;59.732;30.468;2023-03-23T01:32:23;12.32;;;9.23;;
73168;SDS011;61379;59.732;30.468;2023-03-23T01:34:50;36.17;;;16.48;;
73168;SDS011;61379;59.732;30.468;2023-03-23T01:37:16;35.55;;;15.30;;
73168;SDS011;61379;59.732;30.468;2023-03-23T01:39:45;32.72;;;14.30;;
73168;SDS011;61379;59.732;30.468;2023-03-23T01:42:11;15.82;;;10.20;;
73168;SDS011;61379;59.732;30.468;2023-03-23T01:47:25;19.80;;;12.57;;
73168;SDS011;61379;59.732;30.468;2023-03-23T01:49:51;23.65;;;14.43;;
73168;SDS011;61379;59.732;30.468;2023-03-23T01:52:19;29.23;;;14.20;;
73168;SDS011;61379;59.732;30.468;2023-03-23T01:54:49;29.27;;;15.07;;
73168;SDS011;61379;59.732;30.468;2023-03-23T01:57:16;23.38;;;13.18;;
73168;SDS011;61379;59.732;30.468;2023-03-23T01:59:44;34.63;;;15.32;;
73168;SDS011;61379;59.732;30.468;2023-03-23T02:02:12;31.80;;;15.05;;
73168;SDS011;61379;59.732;30.468;2023-03-23T02:04:41;33.25;;;15.55;;
73168;SDS011;61379;59.732;30.468;2023-03-23T02:07:08;39.25;;;18.27;;
73168;SDS011;61379;59.732;30.468;2023-03-23T02:09:34;33.63;;;15.88;;
73168;SDS011;61379;59.732;30.468;2023-03-23T02:12:01;15.60;;;10.15;;
73168;SDS011;61379;59.732;30.468;2023-03-23T02:14:28;25.00;;;13.18;;
73168;SDS011;61379;59.732;30.468;2023-03-23T02:17:17;30.48;;;14.52;;
73168;SDS011;61379;59.732;30.468;2023-03-23T02:20:01;22.02;;;11.75;;
73168;SDS011;61379;59.732;30.468;2023-03-23T02:22:44;24.85;;;12.85;;
73168;SDS011;61379;59.732;30.468;2023-03-23T02:25:20;23.25;;;13.50;;
73168;SDS011;61379;59.732;30.468;2023-03-23T02:30:27;29.65;;;15.55;;
73168;SDS011;61379;59.732;30.468;2023-03-23T02:33:16;16.23;;;10.27;;
73168;SDS011;61379;59.732;30.468;2023-03-23T02:35:46;27.15;;;13.93;;
73168;SDS011;61379;59.732;30.468;2023-03-23T02:38:17;29.25;;;13.60;;
73168;SDS011;61379;59.732;30.468;2023-03-23T02:40:46;12.38;;;10.05;;
73168;SDS011;61379;59.732;30.468;2023-03-23T02:43:14;21.50;;;11.93;;
73168;SDS011;61379;59.732;30.468;2023-03-23T02:45:42;33.05;;;14.90;;
73168;SDS011;61379;59.732;30.468;2023-03-23T02:48:10;19.95;;;12.13;;
73168;SDS011;61379;59.732;30.468;2023-03-23T02:50:40;26.77;;;13.02;;
73168;SDS011;61379;59.732;30.468;2023-03-23T02:53:09;25.60;;;13.48;;
73168;SDS011;61379;59.732;30.468;2023-03-23T02:55:36;30.17;;;13.80;;
73168;SDS011;61379;59.732;30.468;2023-03-23T02:58:05;21.05;;;11.95;;
73168;SDS011;61379;59.732;30.468;2023-03-23T03:00:32;22.08;;;12.52;;
73168;SDS011;61379;59.732;30.468;2023-03-23T03:02:59;21.75;;;11.90;;
73168;SDS011;61379;59.732;30.468;2023-03-23T03:05:27;21.95;;;11.80;;
73168;SDS011;61379;59.732;30.468;2023-03-23T03:08:00;19.55;;;12.10;;
73168;SDS011;61379;59.732;30.468;2023-03-23T03:10:28;15.60;;;10.73;;
73168;SDS011;61379;59.732;30.468;2023-03-23T03:13:00;28.35;;;15.32;;
73168;SDS011;61379;59.732;30.468;2023-03-23T03:15:30;24.25;;;12.40;;
73168;SDS011;61379;59.732;30.468;2023-03-23T03:17:59;22.05;;;13.73;;
73168;SDS011;61379;59.732;30.468;2023-03-23T03:20:27;32.05;;;15.38;;
73168;SDS011;61379;59.732;30.468;2023-03-23T03:22:54;42.05;;;18.17;;
73168;SDS011;61379;59.732;30.468;2023-03-23T03:25:23;14.32;;;10.93;;
73168;SDS011;61379;59.732;30.468;2023-03-23T03:27:52;14.95;;;11.10;;
73168;SDS011;61379;59.732;30.468;2023-03-23T03:30:20;24.40;;;13.27;;
73168;SDS011;61379;59.732;30.468;2023-03-23T03:32:49;22.15;;;12.82;;
73168;SDS011;61379;59.732;30.468;2023-03-23T03:35:18;11.63;;;10.43;;
73168;SDS011;61379;59.732;30.468;2023-03-23T03:37:45;14.20;;;12.30;;
73168;SDS011;61379;59.732;30.468;2023-03-23T03:40:13;13.68;;;11.15;;
73168;SDS011;61379;59.732;30.468;2023-03-23T03:42:43;26.52;;;14.57;;
73168;SDS011;61379;59.732;30.468;2023-03-23T03:45:11;20.23;;;11.82;;
73168;SDS011;61379;59.732;30.468;2023-03-23T03:47:38;18.65;;;12.80;;
73168;SDS011;61379;59.732;30.468;2023-03-23T03:50:05;32.33;;;16.52;;
73168;SDS011;61379;59.732;30.468;2023-03-23T03:52:32;20.60;;;13.23;;
73168;SDS011;61379;59.732;30.468;2023-03-23T03:54:59;21.13;;;12.85;;
73168;SDS011;61379;59.732;30.468;2023-03-23T03:57:26;17.77;;;12.32;;
73168;SDS011;61379;59.732;30.468;2023-03-23T03:59:54;20.70;;;11.98;;
73168;SDS011;61379;59.732;30.468;2023-03-23T04:02:21;22.02;;;12.85;;
73168;SDS011;61379;59.732;30.468;2023-03-23T04:04:47;18.13;;;12.18;;
73168;SDS011;61379;59.732;30.468;2023-03-23T04:07:14;22.58;;;14.63;;
73168;SDS011;61379;59.732;30.468;2023-03-23T04:09:42;23.35;;;14.05;;
73168;SDS011;61379;59.732;30.468;2023-03-23T04:12:11;20.38;;;12.38;;
73168;SDS011;61379;59.732;30.468;2023-03-23T04:14:38;19.80;;;11.82;;
73168;SDS011;61379;59.732;30.468;2023-03-23T04:17:06;19.45;;;11.77;;
73168;SDS011;61379;59.732;30.468;2023-03-23T04:19:34;15.93;;;10.55;;
73168;SDS011;61379;59.732;30.468;2023-03-23T04:22:02;24.40;;;13.60;;
73168;SDS011;61379;59.732;30.468;2023-03-23T04:24:28;28.90;;;14.50;;
73168;SDS011;61379;59.732;30.468;2023-03-23T04:26:57;18.00;;;12.23;;
73168;SDS011;61379;59.732;30.468;2023-03-23T04:29:24;25.83;;;13.95;;
73168;SDS011;61379;59.732;30.468;2023-03-23T04:31:50;24.98;;;13.70;;
73168;SDS011;61379;59.732;30.468;2023-03-23T04:34:19;21.65;;;14.02;;
73168;SDS011;61379;59.732;30.468;2023-03-23T04:36:46;26.05;;;14.10;;
73168;SDS011;61379;59.732;30.468;2023-03-23T04:39:12;16.85;;;12.65;;
73168;SDS011;61379;59.732;30.468;2023-03-23T04:41:41;24.30;;;13.38;;
73168;SDS011;61379;59.732;30.468;2023-03-23T04:44:09;20.80;;;12.38;;
73168;SDS011;61379;59.732;30.468;2023-03-23T04:46:36;16.67;;;12.02;;
73168;SDS011;61379;59.732;30.468;2023-03-23T04:49:04;27.13;;;12.77;;
73168;SDS011;61379;59.732;30.468;2023-03-23T04:51:32;31.23;;;15.27;;
73168;SDS011;61379;59.732;30.468;2023-03-23T04:54:01;26.85;;;14.65;;
73168;SDS011;61379;59.732;30.468;2023-03-23T04:56:27;31.33;;;14.35;;
73168;SDS011;61379;59.732;30.468;2023-03-23T04:58:54;20.50;;;13.07;;
73168;SDS011;61379;59.732;30.468;2023-03-23T05:01:21;22.90;;;12.85;;
73168;SDS011;61379;59.732;30.468;2023-03-23T05:03:48;23.45;;;13.55;;
73168;SDS011;61379;59.732;30.468;2023-03-23T05:06:14;17.17;;;12.63;;
73168;SDS011;61379;59.732;30.468;2023-03-23T05:08:43;29.13;;;14.57;;
73168;SDS011;61379;59.732;30.468;2023-03-23T05:11:09;23.35;;;11.00;;
73168;SDS011;61379;59.732;30.468;2023-03-23T05:13:37;20.08;;;12.70;;
73168;SDS011;61379;59.732;30.468;2023-03-23T05:16:04;15.90;;;11.50;;
73168;SDS011;61379;59.732;30.468;2023-03-23T05:18:31;36.67;;;15.68;;
73168;SDS011;61379;59.732;30.468;2023-03-23T05:20:59;25.40;;;13.00;;
73168;SDS011;61379;59.732;30.468;2023-03-23T05:23:26;22.25;;;10.48;;
73168;SDS011;61379;59.732;30.468;2023-03-23T05:25:58;28.05;;;13.98;;
73168;SDS011;61379;59.732;30.468;2023-03-23T05:28:27;27.67;;;13.35;;
73168;SDS011;61379;59.732;30.468;2023-03-23T05:30:55;23.70;;;13.82;;
73168;SDS011;61379;59.732;30.468;2023-03-23T05:33:22;34.10;;;16.50;;
73168;SDS011;61379;59.732;30.468;2023-03-23T05:35:49;26.85;;;12.95;;
73168;SDS011;61379;59.732;30.468;2023-03-23T05:38:16;27.08;;;13.15;;
73168;SDS011;61379;59.732;30.468;2023-03-23T05:40:43;23.48;;;12.60;;
73168;SDS011;61379;59.732;30.468;2023-03-23T05:43:11;22.30;;;12.68;;
73168;SDS011;61379;59.732;30.468;2023-03-23T05:45:38;25.30;;;14.88;;
73168;SDS011;61379;59.732;30.468;2023-03-23T05:48:05;17.45;;;11.82;;
73168;SDS011;61379;59.732;30.468;2023-03-23T05:50:31;23.60;;;11.98;;
73168;SDS011;61379;59.732;30.468;2023-03-23T05:52:58;26.40;;;13.35;;
73168;SDS011;61379;59.732;30.468;2023-03-23T05:55:25;16.10;;;12.27;;
73168;SDS011;61379;59.732;30.468;2023-03-23T05:57:52;24.05;;;13.30;;
73168;SDS011;61379;59.732;30.468;2023-03-23T06:00:21;18.50;;;13.05;;
73168;SDS011;61379;59.732;30.468;2023-03-23T06:02:49;21.88;;;12.85;;
73168;SDS011;61379;59.732;30.468;2023-03-23T06:05:16;39.78;;;15.55;;
73168;SDS011;61379;59.732;30.468;2023-03-23T06:07:43;25.95;;;14.23;;
73168;SDS011;61379;59.732;30.468;2023-03-23T06:10:10;20.58;;;13.75;;
73168;SDS011;61379;59.732;30.468;2023-03-23T06:12:38;32.40;;;14.68;;
73168;SDS011;61379;59.732;30.468;2023-03-23T06:15:06;17.40;;;12.82;;
73168;SDS011;61379;59.732;30.468;2023-03-23T06:17:35;18.75;;;13.07;;
73168;SDS011;61379;59.732;30.468;2023-03-23T06:20:02;22.75;;;12.57;;
73168;SDS011;61379;59.732;30.468;2023-03-23T06:22:34;27.88;;;14.32;;
73168;SDS011;61379;59.732;30.468;2023-03-23T06:25:01;28.42;;;14.80;;
73168;SDS011;61379;59.732;30.468;2023-03-23T06:27:28;29.20;;;14.30;;
73168;SDS011;61379;59.732;30.468;2023-03-23T06:29:55;21.35;;;12.02;;
73168;SDS011;61379;59.732;30.468;2023-03-23T06:32:22;21.08;;;12.50;;
73168;SDS011;61379;59.732;30.468;2023-03-23T06:34:51;29.55;;;13.32;;
73168;SDS011;61379;59.732;30.468;2023-03-23T06:37:18;20.00;;;11.93;;
73168;SDS011;61379;59.732;30.468;2023-03-23T06:39:44;16.52;;;11.40;;
73168;SDS011;61379;59.732;30.468;2023-03-23T06:42:11;25.27;;;13.40;;
73168;SDS011;61379;59.732;30.468;2023-03-23T06:44:38;24.55;;;13.45;;
73168;SDS011;61379;59.732;30.468;2023-03-23T06:47:05;34.88;;;14.98;;
73168;SDS011;61379;59.732;30.468;2023-03-23T06:49:32;25.05;;;13.68;;
73168;SDS011;61379;59.732;30.468;2023-03-23T06:52:00;29.85;;;13.20;;
73168;SDS011;61379;59.732;30.468;2023-03-23T06:54:28;21.85;;;12.90;;
73168;SDS011;61379;59.732;30.468;2023-03-23T06:56:55;22.83;;;13.07;;
73168;SDS011;61379;59.732;30.468;2023-03-23T06:59:22;17.58;;;10.95;;
73168;SDS011;61379;59.732;30.468;2023-03-23T07:01:49;15.88;;;11.23;;
73168;SDS011;61379;59.732;30.468;2023-03-23T07:04:15;27.98;;;13.25;;
73168;SDS011;61379;59.732;30.468;2023-03-23T07:06:42;24.30;;;13.23;;
73168;SDS011;61379;59.732;30.468;2023-03-23T07:09:10;35.88;;;15.27;;
73168;SDS011;61379;59.732;30.468;2023-03-23T07:11:37;23.98;;;13.55;;
73168;SDS011;61379;59.732;30.468;2023-03-23T07:14:04;22.58;;;13.25;;
73168;SDS011;61379;59.732;30.468;2023-03-23T07:16:30;20.80;;;11.60;;
73168;SDS011;61379;59.732;30.468;2023-03-23T07:18:57;17.85;;;13.00;;
73168;SDS011;61379;59.732;30.468;2023-03-23T07:21:24;19.38;;;13.57;;
73168;SDS011;61379;59.732;30.468;2023-03-23T07:23:51;13.90;;;9.85;;
73168;SDS011;61379;59.732;30.468;2023-03-23T07:26:19;16.70;;;10.77;;
73168;SDS011;61379;59.732;30.468;2023-03-23T07:28:46;10.55;;;9.60;;
73168;SDS011;61379;59.732;30.468;2023-03-23T07:31:13;24.42;;;12.88;;
73168;SDS011;61379;59.732;30.468;2023-03-23T07:33:40;19.58;;;11.80;;
73168;SDS011;61379;59.732;30.468;2023-03-23T07:36:07;14.07;;;10.55;;
73168;SDS011;61379;59.732;30.468;2023-03-23T07:38:34;12.13;;;10.27;;
73168;SDS011;61379;59.732;30.468;2023-03-23T07:41:01;17.80;;;11.45;;
73168;SDS011;61379;59.732;30.468;2023-03-23T07:43:29;12.80;;;10.27;;
73168;SDS011;61379;59.732;30.468;2023-03-23T07:45:56;9.98;;;9.00;;
73168;SDS011;61379;59.732;30.468;2023-03-23T07:48:23;10.23;;;9.23;;
73168;SDS011;61379;59.732;30.468;2023-03-23T07:50:49;10.98;;;9.93;;
73168;SDS011;61379;59.732;30.468;2023-03-23T07:53:16;10.65;;;9.65;;
73168;SDS011;61379;59.732;30.468;2023-03-23T07:55:43;8.98;;;8.27;;
73168;SDS011;61379;59.732;30.468;2023-03-23T07:58:09;13.93;;;10.80;;
73168;SDS011;61379;59.732;30.468;2023-03-23T08:00:38;12.32;;;9.98;;
73168;SDS011;61379;59.732;30.468;2023-03-23T08:03:05;12.00;;;10.80;;
73168;SDS011;61379;59.732;30.468;2023-03-23T08:05:32;11.18;;;10.05;;
73168;SDS011;61379;59.732;30.468;2023-03-23T08:07:59;14.40;;;9.75;;
73168;SDS011;61379;59.732;30.468;2023-03-23T08:10:26;11.82;;;10.82;;
73168;SDS011;61379;59.732;30.468;2023-03-23T08:12:54;12.40;;;10.52;;
73168;SDS011;61379;59.732;30.468;2023-03-23T08:15:21;12.35;;;11.18;;
73168;SDS011;61379;59.732;30.468;2023-03-23T08:17:49;10.27;;;9.48;;
73168;SDS011;61379;59.732;30.468;2023-03-23T08:20:16;10.77;;;9.68;;
73168;SDS011;61379;59.732;30.468;2023-03-23T08:22:49;10.63;;;9.63;;
73168;SDS011;61379;59.732;30.468;2023-03-23T08:25:18;10.63;;;9.73;;
73168;SDS011;61379;59.732;30.468;2023-03-23T08:27:45;10.38;;;9.38;;
73168;SDS011;61379;59.732;30.468;2023-03-23T08:30:12;11.27;;;10.27;;
73168;SDS011;61379;59.732;30.468;2023-03-23T08:32:40;10.50;;;9.65;;
73168;SDS011;61379;59.732;30.468;2023-03-23T08:35:09;8.57;;;7.97;;
73168;SDS011;61379;59.732;30.468;2023-03-23T08:37:36;10.60;;;9.60;;
73168;SDS011;61379;59.732;30.468;2023-03-23T08:40:03;10.63;;;9.82;;
73168;SDS011;61379;59.732;30.468;2023-03-23T08:42:34;10.55;;;9.77;;
73168;SDS011;61379;59.732;30.468;2023-03-23T08:45:01;10.50;;;9.60;;
73168;SDS011;61379;59.732;30.468;2023-03-23T08:47:28;11.18;;;10.27;;
73168;SDS011;61379;59.732;30.468;2023-03-23T08:49:55;10.73;;;9.93;;
73168;SDS011;61379;59.732;30.468;2023-03-23T08:52:23;10.18;;;9.43;;
73168;SDS011;61379;59.732;30.468;2023-03-23T08:54:50;10.35;;;9.55;;
73168;SDS011;61379;59.732;30.468;2023-03-23T08:57:16;10.02;;;9.32;;
73168;SDS011;61379;59.732;30.468;2023-03-23T08:59:43;9.90;;;9.05;;
73168;SDS011;61379;59.732;30.468;2023-03-23T09:02:10;9.45;;;8.85;;
73168;SDS011;61379;59.732;30.468;2023-03-23T09:04:38;9.00;;;8.30;;
73168;SDS011;61379;59.732;30.468;2023-03-23T09:07:04;10.18;;;9.27;;
73168;SDS011;61379;59.732;30.468;2023-03-23T09:09:33;10.35;;;9.55;;
73168;SDS011;61379;59.732;30.468;2023-03-23T09:12:00;9.70;;;9.02;;
73168;SDS011;61379;59.732;30.468;2023-03-23T09:14:27;9.55;;;8.85;;
73168;SDS011;61379;59.732;30.468;2023-03-23T09:16:53;9.82;;;9.05;;
73168;SDS011;61379;59.732;30.468;2023-03-23T09:19:20;9.18;;;8.48;;
73168;SDS011;61379;59.732;30.468;2023-03-23T09:21:47;9.73;;;9.13;;
73168;SDS011;61379;59.732;30.468;2023-03-23T09:24:14;9.88;;;9.18;;
73168;SDS011;61379;59.732;30.468;2023-03-23T09:26:43;10.45;;;9.63;;
73168;SDS011;61379;59.732;30.468;2023-03-23T09:29:09;10.73;;;9.93;;
73168;SDS011;61379;59.732;30.468;2023-03-23T09:31:37;11.00;;;10.07;;
73168;SDS011;61379;59.732;30.468;2023-03-23T09:34:05;10.07;;;9.38;;
73168;SDS011;61379;59.732;30.468;2023-03-23T09:36:34;10.23;;;9.43;;
73168;SDS011;61379;59.732;30.468;2023-03-23T09:39:01;10.57;;;9.68;;
73168;SDS011;61379;59.732;30.468;2023-03-23T09:41:46;9.57;;;8.93;;
73168;SDS011;61379;59.732;30.468;2023-03-23T09:44:19;10.48;;;9.77;;
73168;SDS011;61379;59.732;30.468;2023-03-23T09:46:50;9.68;;;9.07;;
73168;SDS011;61379;59.732;30.468;2023-03-23T09:49:19;9.00;;;8.40;;
73168;SDS011;61379;59.732;30.468;2023-03-23T09:51:49;9.55;;;8.77;;
73168;SDS011;61379;59.732;30.468;2023-03-23T09:54:19;8.70;;;8.10;;
73168;SDS011;61379;59.732;30.468;2023-03-23T09:59:16;9.38;;;8.77;;
73168;SDS011;61379;59.732;30.468;2023-03-23T10:01:45;9.00;;;8.20;;
73168;SDS011;61379;59.732;30.468;2023-03-23T10:04:15;9.07;;;8.48;;
73168;SDS011;61379;59.732;30.468;2023-03-23T10:06:45;9.57;;;8.95;;
73168;SDS011;61379;59.732;30.468;2023-03-23T10:09:14;8.65;;;8.05;;
73168;SDS011;61379;59.732;30.468;2023-03-23T10:11:44;8.68;;;8.00;;
73168;SDS011;61379;59.732;30.468;2023-03-23T10:14:21;9.55;;;8.95;;
73168;SDS011;61379;59.732;30.468;2023-03-23T10:16:52;9.27;;;8.57;;
73168;SDS011;61379;59.732;30.468;2023-03-23T10:19:24;8.70;;;8.05;;
73168;SDS011;61379;59.732;30.468;2023-03-23T10:21:54;8.90;;;8.30;;
73168;SDS011;61379;59.732;30.468;2023-03-23T10:24:24;8.48;;;7.88;;
73168;SDS011;61379;59.732;30.468;2023-03-23T10:26:54;9.90;;;9.00;;
73168;SDS011;61379;59.732;30.468;2023-03-23T10:29:27;8.82;;;8.23;;
73168;SDS011;61379;59.732;30.468;2023-03-23T10:31:56;8.23;;;7.63;;
73168;SDS011;61379;59.732;30.468;2023-03-23T10:34:27;8.48;;;7.78;;
73168;SDS011;61379;59.732;30.468;2023-03-23T10:36:56;9.25;;;8.48;;
73168;SDS011;61379;59.732;30.468;2023-03-23T10:39:27;9.38;;;8.68;;
73168;SDS011;61379;59.732;30.468;2023-03-23T10:41:55;10.02;;;9.32;;
73168;SDS011;61379;59.732;30.468;2023-03-23T10:44:29;10.05;;;9.25;;
73168;SDS011;61379;59.732;30.468;2023-03-23T10:46:57;8.57;;;7.97;;
73168;SDS011;61379;59.732;30.468;2023-03-23T10:49:25;9.13;;;8.27;;
73168;SDS011;61379;59.732;30.468;2023-03-23T10:51:56;9.40;;;8.73;;
73168;SDS011;61379;59.732;30.468;2023-03-23T10:54:25;8.57;;;8.07;;
73168;SDS011;61379;59.732;30.468;2023-03-23T10:56:53;9.45;;;8.75;;
73168;SDS011;61379;59.732;30.468;2023-03-23T10:59:21;8.10;;;7.50;;
73168;SDS011;61379;59.732;30.468;2023-03-23T11:01:50;9.13;;;8.52;;
73168;SDS011;61379;59.732;30.468;2023-03-23T11:06:44;8.63;;;8.02;;
73168;SDS011;61379;59.732;30.468;2023-03-23T11:09:12;8.10;;;7.60;;
73168;SDS011;61379;59.732;30.468;2023-03-23T11:11:39;9.02;;;8.43;;
73168;SDS011;61379;59.732;30.468;2023-03-23T11:14:13;9.43;;;8.65;;
73168;SDS011;61379;59.732;30.468;2023-03-23T11:16:42;8.18;;;7.68;;
73168;SDS011;61379;59.732;30.468;2023-03-23T11:19:15;8.85;;;8.25;;
73168;SDS011;61379;59.732;30.468;2023-03-23T11:21:45;8.82;;;8.32;;
73168;SDS011;61379;59.732;30.468;2023-03-23T11:24:13;8.77;;;8.27;;
73168;SDS011;61379;59.732;30.468;2023-03-23T11:26:40;8.18;;;7.53;;
73168;SDS011;61379;59.732;30.468;2023-03-23T11:29:10;8.85;;;8.15;;
73168;SDS011;61379;59.732;30.468;2023-03-23T11:31:38;8.82;;;8.23;;
73168;SDS011;61379;59.732;30.468;2023-03-23T11:34:09;8.63;;;7.90;;
73168;SDS011;61379;59.732;30.468;2023-03-23T11:36:39;8.32;;;7.72;;
73168;SDS011;61379;59.732;30.468;2023-03-23T11:39:19;8.30;;;7.70;;
73168;SDS011;61379;59.732;30.468;2023-03-23T11:41:46;8.45;;;7.80;;
73168;SDS011;61379;59.732;30.468;2023-03-23T11:44:13;8.57;;;7.97;;
73168;SDS011;61379;59.732;30.468;2023-03-23T11:46:53;8.85;;;8.15;;
73168;SDS011;61379;59.732;30.468;2023-03-23T11:49:25;8.73;;;8.02;;
73168;SDS011;61379;59.732;30.468;2023-03-23T11:51:56;8.02;;;7.53;;
73168;SDS011;61379;59.732;30.468;2023-03-23T11:54:26;8.63;;;8.10;;
73168;SDS011;61379;59.732;30.468;2023-03-23T11:56:55;8.77;;;8.13;;
73168;SDS011;61379;59.732;30.468;2023-03-23T11:59:26;8.10;;;7.40;;
73168;SDS011;61379;59.732;30.468;2023-03-23T12:01:56;8.80;;;7.93;;
73168;SDS011;61379;59.732;30.468;2023-03-23T12:07:19;9.25;;;8.65;;
73168;SDS011;61379;59.732;30.468;2023-03-23T12:09:51;8.48;;;7.93;;
73168;SDS011;61379;59.732;30.468;2023-03-23T12:12:22;8.30;;;7.70;;
73168;SDS011;61379;59.732;30.468;2023-03-23T12:14:56;7.90;;;7.40;;
73168;SDS011;61379;59.732;30.468;2023-03-23T12:17:28;8.27;;;7.57;;
73168;SDS011;61379;59.732;30.468;2023-03-23T12:20:01;7.80;;;7.22;;
73168;SDS011;61379;59.732;30.468;2023-03-23T12:22:40;7.18;;;6.57;;
73168;SDS011;61379;59.732;30.468;2023-03-23T12:25:15;7.68;;;7.15;;
73168;SDS011;61379;59.732;30.468;2023-03-23T12:27:46;8.05;;;7.55;;
73168;SDS011;61379;59.732;30.468;2023-03-23T12:30:22;7.53;;;6.93;;
73168;SDS011;61379;59.732;30.468;2023-03-23T12:32:54;7.75;;;7.10;;
73168;SDS011;61379;59.732;30.468;2023-03-23T12:35:30;8.52;;;7.75;;
73168;SDS011;61379;59.732;30.468;2023-03-23T12:38:03;8.30;;;7.55;;
73168;SDS011;61379;59.732;30.468;2023-03-23T12:40:39;7.50;;;6.97;;
73168;SDS011;61379;59.732;30.468;2023-03-23T12:43:10;8.52;;;7.82;;
73168;SDS011;61379;59.732;30.468;2023-03-23T12:45:52;7.45;;;6.85;;
73168;SDS011;61379;59.732;30.468;2023-03-23T12:48:22;8.00;;;7.28;;
73168;SDS011;61379;59.732;30.468;2023-03-23T12:51:00;7.78;;;7.28;;
73168;SDS011;61379;59.732;30.468;2023-03-23T12:53:31;7.40;;;6.78;;
73168;SDS011;61379;59.732;30.468;2023-03-23T12:56:04;7.07;;;6.57;;
73168;SDS011;61379;59.732;30.468;2023-03-23T12:58:34;7.35;;;6.85;;
73168;SDS011;61379;59.732;30.468;2023-03-23T13:01:06;7.78;;;7.28;;
73168;SDS011;61379;59.732;30.468;2023-03-23T13:03:37;7.53;;;6.82;;
73168;SDS011;61379;59.732;30.468;2023-03-23T13:06:07;8.05;;;7.07;;
73168;SDS011;61379;59.732;30.468;2023-03-23T13:08:36;8.18;;;7.57;;
73168;SDS011;61379;59.732;30.468;2023-03-23T13:13:40;8.10;;;7.28;;
73168;SDS011;61379;59.732;30.468;2023-03-23T13:16:10;8.43;;;7.63;;
73168;SDS011;61379;59.732;30.468;2023-03-23T13:18:40;8.20;;;7.22;;
73168;SDS011;61379;59.732;30.468;2023-03-23T13:21:11;7.60;;;6.90;;
73168;SDS011;61379;59.732;30.468;2023-03-23T13:23:42;7.90;;;6.95;;
73168;SDS011;61379;59.732;30.468;2023-03-23T13:26:11;6.90;;;6.30;;
73168;SDS011;61379;59.732;30.468;2023-03-23T13:28:49;6.60;;;6.10;;
73168;SDS011;61379;59.732;30.468;2023-03-23T13:31:17;7.28;;;6.68;;
73168;SDS011;61379;59.732;30.468;2023-03-23T13:33:46;6.88;;;6.38;;
73168;SDS011;61379;59.732;30.468;2023-03-23T13:36:13;7.57;;;6.97;;
73168;SDS011;61379;59.732;30.468;2023-03-23T13:38:45;7.68;;;6.65;;
73168;SDS011;61379;59.732;30.468;2023-03-23T13:41:14;6.93;;;6.43;;
73168;SDS011;61379;59.732;30.468;2023-03-23T13:43:42;7.28;;;6.57;;
73168;SDS011;61379;59.732;30.468;2023-03-23T13:46:12;7.93;;;7.13;;
73168;SDS011;61379;59.732;30.468;2023-03-23T13:48:40;7.80;;;7.03;;
73168;SDS011;61379;59.732;30.468;2023-03-23T13:51:22;7.45;;;6.85;;
73168;SDS011;61379;59.732;30.468;2023-03-23T13:53:51;8.73;;;7.30;;
73168;SDS011;61379;59.732;30.468;2023-03-23T13:56:19;8.55;;;7.60;;
73168;SDS011;61379;59.732;30.468;2023-03-23T13:58:46;7.55;;;7.05;;
73168;SDS011;61379;59.732;30.468;2023-03-23T14:01:15;8.38;;;7.35;;
73168;SDS011;61379;59.732;30.468;2023-03-23T14:03:43;8.02;;;7.43;;
73168;SDS011;61379;59.732;30.468;2023-03-23T14:06:12;7.53;;;7.03;;
73168;SDS011;61379;59.732;30.468;2023-03-23T14:08:40;9.32;;;8.40;;
73168;SDS011;61379;59.732;30.468;2023-03-23T14:11:13;7.50;;;6.95;;
73168;SDS011;61379;59.732;30.468;2023-03-23T14:13:44;7.30;;;6.75;;
73168;SDS011;61379;59.732;30.468;2023-03-23T14:16:14;7.28;;;6.45;;
73168;SDS011;61379;59.732;30.468;2023-03-23T14:18:49;8.35;;;7.55;;
73168;SDS011;61379;59.732;30.468;2023-03-23T14:21:21;7.45;;;6.82;;
73168;SDS011;61379;59.732;30.468;2023-03-23T14:23:48;6.88;;;6.47;;
73168;SDS011;61379;59.732;30.468;2023-03-23T14:26:17;8.38;;;7.65;;
73168;SDS011;61379;59.732;30.468;2023-03-23T14:28:45;7.85;;;7.15;;
73168;SDS011;61379;59.732;30.468;2023-03-23T14:31:17;8.93;;;8.10;;
73168;SDS011;61379;59.732;30.468;2023-03-23T14:33:44;8.52;;;7.60;;
73168;SDS011;61379;59.732;30.468;2023-03-23T14:36:13;8.45;;;7.65;;
73168;SDS011;61379;59.732;30.468;2023-03-23T14:38:40;8.60;;;7.72;;
73168;SDS011;61379;59.732;30.468;2023-03-23T14:41:10;8.63;;;7.93;;
73168;SDS011;61379;59.732;30.468;2023-03-23T14:43:39;7.85;;;7.22;;
73168;SDS011;61379;59.732;30.468;2023-03-23T14:46:06;8.18;;;7.57;;
73168;SDS011;61379;59.732;30.468;2023-03-23T14:48:34;8.00;;;7.50;;